• Join FlightAware (Why Join?)
  • Login
  • US Flag 
Trick or treat! (Boo!!) 
09:44AM EDT


 

Airport Tracker/Info


-or-


 

Live Flight TrackerFlight Track Log ✈ N101FG ✈ 26-Feb-2014 ✈ KGNV - KVRB

Flight Track Log - Related Links

Times and Time Zones

All times are in EST time to prevent confusion due to time zone crossing. See the N101FG flight status page for this flight to view local times or setup timezone preferences in your user account.

Time Position Orientation Groundspeed Altitude Reporting Facility
EST Latitude Longitude Course Direction KTS MPH feet Rate Location/Type
07:05PM 29.3907 -82.2269 178° South 288 331 10,400  Level FlightAware ADS-B (KMCO)
07:07PM 29.2403 -82.2262 180° South 293 337 13,200 1,080 Climbing FlightAware ADS-B (KMCO)
07:09PM 29.0546 -82.1288 147° Southeast 351 404 15,100 660 Climbing FlightAware ADS-B (KMCO)
07:10PM 29.0219 -82.1042 146° Southeast 359 413 15,100  Level FlightAware ADS-B (KMCO)
07:10PM 28.9505 -82.0475 145° Southeast 359 413 15,100  Level FlightAware ADS-B (KMCO)
07:11PM 28.9049 -82.0117 146° Southeast 357 411 15,100  Level FlightAware ADS-B (KMCO)
07:12PM 28.8626 -81.9786 146° Southeast 355 409 15,100  Level FlightAware ADS-B (KMCO)
07:12PM 28.8206 -81.9456 145° Southeast 352 405 15,100  Level FlightAware ADS-B (KMCO)
07:13PM 28.7701 -81.9060 145° Southeast 349 402 15,100  Level FlightAware ADS-B (KMCO)
07:13PM 28.7271 -81.8724 145° Southeast 347 399 15,100  Level FlightAware ADS-B (KMCO)
07:14PM 28.6750 -81.8317 146° Southeast 346 398 15,100  Level FlightAware ADS-B (KMCO)
07:14PM 28.6393 -81.7986 130° Southeast 357 411 15,100  Level FlightAware ADS-B (KMCO)
07:15PM 28.6196 -81.7637 116° Southeast 366 421 15,100 -600 Level FlightAware ADS-B (KMCO)
07:15PM 28.5905 -81.6928 115° Southeast 375 432 14,500 -1,140 Descending FlightAware ADS-B (KMCO)
07:16PM 28.5618 -81.6222 115° Southeast 368 423 13,600 -1,500 Descending FlightAware ADS-B (KMCO)
07:17PM 28.5405 -81.5693 115° Southeast 359 413 12,800 -1,500 Descending FlightAware ADS-B (KMCO)
07:17PM 28.5133 -81.5018 114° Southeast 357 411 11,900 -1,380 Descending FlightAware ADS-B (KMCO)
07:18PM 28.4930 -81.4494 114° Southeast 350 403 11,200 -720 Descending FlightAware ADS-B (KMCO)
07:18PM 28.4664 -81.3804 114° Southeast 356 410 11,100 -120 Descending FlightAware ADS-B (KMCO)
07:19PM 28.4446 -81.3244 114° Southeast 351 404 11,100  Level FlightAware ADS-B (VOCI / COK)
07:19PM 28.4446 -81.3244 122° Southeast 345 397 11,100 -300 Level FlightAware ADS-B (VOCI / COK)
07:20PM 28.4072 -81.2536 125° Southeast 333 383 10,900 -1,320 Descending FlightAware ADS-B (KMCO)
07:20PM 28.3718 -81.1964 125° Southeast 317 365 9,500 -2,040 Descending FlightAware ADS-B (KMCO)
07:21PM 28.3555 -81.1693 124° Southeast 314 361 8,900 -2,040 Descending FlightAware ADS-B (KMCO)
07:21PM 28.3400 -81.1431 124° Southeast 312 359 8,200 -2,160 Descending FlightAware ADS-B (KMCO)
07:21PM 28.3238 -81.1156 124° Southeast 309 356 7,500 -1,920 Descending FlightAware ADS-B (KMCO)
07:22PM 28.3072 -81.0877 124° Southeast 305 351 6,900 -1,560 Descending FlightAware ADS-B (KMCO)
07:22PM 28.2840 -81.0490 124° Southeast 293 337 6,200 -960 Descending FlightAware ADS-B (KMCO)
07:23PM 28.2683 -81.0230 125° Southeast 289 333 6,100 -180 Descending FlightAware ADS-B (KMCO)
07:23PM 28.2532 -80.9986 125° Southeast 303 349 6,100  Level FlightAware ADS-B (KMCO)
07:23PM 28.2277 -80.9577 125° Southeast 305 351 6,100  Level FlightAware ADS-B (KMCO)
07:24PM 28.2045 -80.9182 112° Southeast 308 354 6,100  Level FlightAware ADS-B (KMCO)
07:24PM 28.1955 -80.8866 106° East 288 331 6,100  Level FlightAware ADS-B (KMCO)
07:25PM 28.1879 -80.8464 101° East 270 311 6,100  Level FlightAware ADS-B (KMCO)
07:25PM 28.1828 -80.8177 102° East 255 293 6,100 -480 Level FlightAware ADS-B (KMCO)
07:25PM 28.1776 -80.7911 102° East 247 284 5,800 -1,440 Descending FlightAware ADS-B (KMCO)
07:26PM 28.1729 -80.7669 102° East 251 289 5,200 -1,680 Descending FlightAware ADS-B (KMCO)
07:26PM 28.1677 -80.7413 110° East 253 291 4,700 -1,380 Descending FlightAware ADS-B (KMCO)
07:26PM 28.1615 -80.7297 132° Southeast 244 281 4,500 -1,440 Descending FlightAware ADS-B (KMCO)
07:27PM 28.1419 -80.7168 158° South 235 270 4,000 -1,560 Descending FlightAware ADS-B (KMCO)
07:27PM 28.1226 -80.7061 152° Southeast 252 290 3,500 -1,260 Descending FlightAware ADS-B (KMCO)
07:27PM 28.1016 -80.6926 150° Southeast 259 298 3,200 -180 Descending FlightAware ADS-B (KMCO)
07:29PM 28.0065 -80.6325 152° Southeast 256 295 3,200  Level FlightAware ADS-B (KMCO)
07:29PM 27.9879 -80.6211 151° Southeast 255 293 3,200 -240 Level FlightAware ADS-B (KMCO)
07:30PM 27.9453 -80.5964 151° Southeast 253 291 3,000 -240 Descending Miami Center
07:31PM 27.8814 -80.5589 153° Southeast 258 297 2,800 -480 Descending Miami Center
07:32PM 27.8300 -80.5267 151° Southeast 247 284 2,100 -480 Descending Miami Center
07:33PM 27.7767 -80.4947 152° Southeast 233 268 1,900 -300 Descending Miami Center
07:34PM 27.7253 -80.4600 149° Southeast 201 231 1,600 -180 Descending Miami Center
07:35PM 27.6908 -80.4239 137° Southeast 186 214 1,600 -300 Level Miami Center
07:36PM 27.6772 -80.3811 110° East 157 181 1,100 -420 Descending Miami Center
07:37PM 27.6522 -80.3781 174° South 101 116 800 -480 Descending Miami Center
07:38PM 27.6494 -80.4014 262° West 64 74 200 -600 Descending Miami Center